sensor_id;sensor_type;location;lat;lon;timestamp;pressure;altitude;pressure_sealevel;temperature;humidity
54876;BME280;40764;48.472;8.166;2022-10-16T00:04:01;98055.31;;;14.82;100.00
54876;BME280;40764;48.472;8.166;2022-10-16T00:10:02;98053.19;;;14.88;100.00
54876;BME280;40764;48.472;8.166;2022-10-16T00:16:03;98051.06;;;14.94;100.00
54876;BME280;40764;48.472;8.166;2022-10-16T00:22:03;98063.50;;;15.00;100.00
54876;BME280;40764;48.472;8.166;2022-10-16T00:28:04;98060.63;;;14.87;100.00
54876;BME280;40764;48.472;8.166;2022-10-16T00:34:04;98061.59;;;14.92;100.00
54876;BME280;40764;48.472;8.166;2022-10-16T00:40:05;98068.91;;;14.79;100.00
54876;BME280;40764;48.472;8.166;2022-10-16T00:46:12;98063.34;;;14.96;100.00
54876;BME280;40764;48.472;8.166;2022-10-16T00:52:14;98058.22;;;14.77;100.00
54876;BME280;40764;48.472;8.166;2022-10-16T00:58:14;98062.88;;;14.94;100.00
54876;BME280;40764;48.472;8.166;2022-10-16T01:04:15;98064.19;;;14.88;100.00
54876;BME280;40764;48.472;8.166;2022-10-16T01:16:29;98077.31;;;14.82;100.00
54876;BME280;40764;48.472;8.166;2022-10-16T01:28:55;98071.66;;;14.79;100.00
54876;BME280;40764;48.472;8.166;2022-10-16T01:35:25;98078.59;;;14.85;100.00
54876;BME280;40764;48.472;8.166;2022-10-16T01:41:45;98076.19;;;14.75;100.00
54876;BME280;40764;48.472;8.166;2022-10-16T01:47:49;98068.25;;;14.82;100.00
54876;BME280;40764;48.472;8.166;2022-10-16T01:53:57;98070.19;;;14.73;100.00
54876;BME280;40764;48.472;8.166;2022-10-16T02:00:02;98055.97;;;14.62;100.00
54876;BME280;40764;48.472;8.166;2022-10-16T02:06:04;98063.72;;;14.69;100.00
54876;BME280;40764;48.472;8.166;2022-10-16T02:12:27;98054.19;;;14.66;100.00
54876;BME280;40764;48.472;8.166;2022-10-16T02:18:28;98066.50;;;14.51;100.00
54876;BME280;40764;48.472;8.166;2022-10-16T02:24:35;98059.38;;;14.50;100.00
54876;BME280;40764;48.472;8.166;2022-10-16T02:36:45;98059.53;;;14.54;100.00
54876;BME280;40764;48.472;8.166;2022-10-16T02:42:50;98069.25;;;14.60;100.00
54876;BME280;40764;48.472;8.166;2022-10-16T02:48:51;98065.63;;;14.42;100.00
54876;BME280;40764;48.472;8.166;2022-10-16T02:54:52;98063.56;;;14.31;100.00
54876;BME280;40764;48.472;8.166;2022-10-16T03:00:52;98074.41;;;14.44;100.00
54876;BME280;40764;48.472;8.166;2022-10-16T03:06:53;98077.34;;;14.48;100.00
54876;BME280;40764;48.472;8.166;2022-10-16T03:12:53;98069.22;;;14.43;100.00
54876;BME280;40764;48.472;8.166;2022-10-16T03:18:53;98075.84;;;14.42;100.00
54876;BME280;40764;48.472;8.166;2022-10-16T03:24:54;98071.47;;;14.41;100.00
54876;BME280;40764;48.472;8.166;2022-10-16T03:30:54;98066.34;;;14.48;100.00
54876;BME280;40764;48.472;8.166;2022-10-16T03:36:54;98068.63;;;14.46;100.00
54876;BME280;40764;48.472;8.166;2022-10-16T03:42:55;98075.84;;;14.42;100.00
54876;BME280;40764;48.472;8.166;2022-10-16T03:48:57;98068.38;;;14.42;100.00
54876;BME280;40764;48.472;8.166;2022-10-16T03:54:57;98067.59;;;14.33;100.00
54876;BME280;40764;48.472;8.166;2022-10-16T04:00:58;98078.16;;;14.48;100.00
54876;BME280;40764;48.472;8.166;2022-10-16T04:06:58;98077.63;;;14.38;100.00
54876;BME280;40764;48.472;8.166;2022-10-16T04:12:58;98084.56;;;14.26;100.00
54876;BME280;40764;48.472;8.166;2022-10-16T04:18:58;98086.00;;;14.15;100.00
54876;BME280;40764;48.472;8.166;2022-10-16T04:24:59;98091.19;;;14.17;100.00
54876;BME280;40764;48.472;8.166;2022-10-16T04:30:59;98090.56;;;14.20;100.00
54876;BME280;40764;48.472;8.166;2022-10-16T04:37:00;98089.88;;;14.06;100.00
54876;BME280;40764;48.472;8.166;2022-10-16T04:43:00;98085.19;;;13.98;100.00
54876;BME280;40764;48.472;8.166;2022-10-16T04:49:00;98083.56;;;14.05;100.00
54876;BME280;40764;48.472;8.166;2022-10-16T04:55:01;98097.03;;;14.24;100.00
54876;BME280;40764;48.472;8.166;2022-10-16T05:01:02;98101.41;;;14.25;100.00
54876;BME280;40764;48.472;8.166;2022-10-16T05:07:03;98103.66;;;14.23;100.00
54876;BME280;40764;48.472;8.166;2022-10-16T05:13:03;98102.19;;;14.25;100.00
54876;BME280;40764;48.472;8.166;2022-10-16T05:19:04;98121.59;;;14.20;100.00
54876;BME280;40764;48.472;8.166;2022-10-16T05:25:04;98129.00;;;14.11;100.00
54876;BME280;40764;48.472;8.166;2022-10-16T05:31:06;98126.56;;;14.10;100.00
54876;BME280;40764;48.472;8.166;2022-10-16T05:37:06;98121.56;;;14.03;100.00
54876;BME280;40764;48.472;8.166;2022-10-16T05:43:07;98132.56;;;14.12;100.00
54876;BME280;40764;48.472;8.166;2022-10-16T05:49:07;98133.53;;;14.16;100.00
54876;BME280;40764;48.472;8.166;2022-10-16T05:55:08;98129.84;;;14.20;100.00
54876;BME280;40764;48.472;8.166;2022-10-16T06:01:16;98148.31;;;14.37;100.00
54876;BME280;40764;48.472;8.166;2022-10-16T06:07:17;98163.19;;;14.36;100.00
54876;BME280;40764;48.472;8.166;2022-10-16T06:13:17;98157.84;;;14.31;100.00
54876;BME280;40764;48.472;8.166;2022-10-16T06:19:18;98157.50;;;14.33;100.00
54876;BME280;40764;48.472;8.166;2022-10-16T06:25:18;98155.78;;;14.45;100.00
54876;BME280;40764;48.472;8.166;2022-10-16T06:31:19;98171.47;;;14.45;100.00
54876;BME280;40764;48.472;8.166;2022-10-16T06:37:20;98175.06;;;14.54;100.00
54876;BME280;40764;48.472;8.166;2022-10-16T06:43:20;98184.78;;;14.51;100.00
54876;BME280;40764;48.472;8.166;2022-10-16T06:49:22;98188.50;;;14.55;100.00
54876;BME280;40764;48.472;8.166;2022-10-16T06:55:23;98204.50;;;14.71;100.00
54876;BME280;40764;48.472;8.166;2022-10-16T07:01:25;98207.09;;;14.67;100.00
54876;BME280;40764;48.472;8.166;2022-10-16T07:07:25;98219.28;;;14.83;100.00
54876;BME280;40764;48.472;8.166;2022-10-16T07:13:26;98233.50;;;14.94;100.00
54876;BME280;40764;48.472;8.166;2022-10-16T07:19:27;98240.81;;;14.99;100.00
54876;BME280;40764;48.472;8.166;2022-10-16T07:25:27;98248.72;;;15.00;100.00
54876;BME280;40764;48.472;8.166;2022-10-16T07:31:27;98244.06;;;15.09;100.00
54876;BME280;40764;48.472;8.166;2022-10-16T07:37:28;98256.34;;;15.21;100.00
54876;BME280;40764;48.472;8.166;2022-10-16T07:43:29;98269.47;;;15.32;100.00
54876;BME280;40764;48.472;8.166;2022-10-16T07:49:29;98277.75;;;15.41;100.00
54876;BME280;40764;48.472;8.166;2022-10-16T07:55:30;98278.56;;;15.41;100.00
54876;BME280;40764;48.472;8.166;2022-10-16T08:01:30;98263.97;;;15.49;100.00
54876;BME280;40764;48.472;8.166;2022-10-16T08:07:30;98276.78;;;15.71;100.00
54876;BME280;40764;48.472;8.166;2022-10-16T08:13:31;98278.28;;;16.07;100.00
54876;BME280;40764;48.472;8.166;2022-10-16T08:19:34;98281.91;;;16.37;100.00
54876;BME280;40764;48.472;8.166;2022-10-16T08:25:35;98282.44;;;16.68;100.00
54876;BME280;40764;48.472;8.166;2022-10-16T08:31:39;98276.81;;;16.86;100.00
54876;BME280;40764;48.472;8.166;2022-10-16T08:37:39;98295.16;;;17.32;100.00
54876;BME280;40764;48.472;8.166;2022-10-16T08:43:54;98298.00;;;17.44;100.00
54876;BME280;40764;48.472;8.166;2022-10-16T08:50:08;98287.09;;;17.69;100.00
54876;BME280;40764;48.472;8.166;2022-10-16T08:56:09;98287.53;;;18.04;100.00
54876;BME280;40764;48.472;8.166;2022-10-16T09:02:28;98300.16;;;18.50;100.00
54876;BME280;40764;48.472;8.166;2022-10-16T09:08:48;98293.38;;;18.47;100.00
54876;BME280;40764;48.472;8.166;2022-10-16T09:21:18;98295.31;;;19.20;100.00
54876;BME280;40764;48.472;8.166;2022-10-16T09:27:19;98300.91;;;19.48;100.00
54876;BME280;40764;48.472;8.166;2022-10-16T09:33:23;98314.84;;;19.92;97.14
54876;BME280;40764;48.472;8.166;2022-10-16T09:39:26;98312.78;;;20.32;92.57
54876;BME280;40764;48.472;8.166;2022-10-16T09:45:26;98315.41;;;20.72;87.41
54876;BME280;40764;48.472;8.166;2022-10-16T09:51:36;98312.91;;;20.67;85.41
54876;BME280;40764;48.472;8.166;2022-10-16T09:57:37;98334.06;;;20.72;75.17
54876;BME280;40764;48.472;8.166;2022-10-16T10:03:39;98336.91;;;20.76;73.75
54876;BME280;40764;48.472;8.166;2022-10-16T10:09:44;98351.63;;;20.76;72.40
54876;BME280;40764;48.472;8.166;2022-10-16T10:15:45;98358.31;;;20.44;85.42
54876;BME280;40764;48.472;8.166;2022-10-16T10:21:46;98346.38;;;20.27;88.60
54876;BME280;40764;48.472;8.166;2022-10-16T11:05:41;98341.84;;;22.26;59.87
54876;BME280;40764;48.472;8.166;2022-10-16T11:12:00;98336.00;;;22.31;60.27
54876;BME280;40764;48.472;8.166;2022-10-16T11:18:30;98340.03;;;22.34;62.38
54876;BME280;40764;48.472;8.166;2022-10-16T11:30:44;98333.69;;;22.14;62.93
54876;BME280;40764;48.472;8.166;2022-10-16T11:37:09;98330.94;;;22.37;58.96
54876;BME280;40764;48.472;8.166;2022-10-16T11:49:26;98328.59;;;22.62;57.00
54876;BME280;40764;48.472;8.166;2022-10-16T11:55:39;98324.56;;;22.59;54.61
54876;BME280;40764;48.472;8.166;2022-10-16T12:01:52;98326.13;;;22.56;54.66
54876;BME280;40764;48.472;8.166;2022-10-16T12:26:11;98315.47;;;22.62;55.30
54876;BME280;40764;48.472;8.166;2022-10-16T12:32:27;98315.84;;;22.61;54.33
54876;BME280;40764;48.472;8.166;2022-10-16T12:44:35;98309.16;;;22.42;59.86
54876;BME280;40764;48.472;8.166;2022-10-16T12:50:38;98314.69;;;22.19;67.51
54876;BME280;40764;48.472;8.166;2022-10-16T12:57:10;98306.72;;;21.99;72.82
54876;BME280;40764;48.472;8.166;2022-10-16T13:03:45;98301.31;;;22.06;77.80
54876;BME280;40764;48.472;8.166;2022-10-16T13:09:58;98301.00;;;22.11;76.41
54876;BME280;40764;48.472;8.166;2022-10-16T13:22:39;98303.63;;;22.46;75.11
54876;BME280;40764;48.472;8.166;2022-10-16T13:28:43;98307.38;;;22.80;74.61
54876;BME280;40764;48.472;8.166;2022-10-16T13:34:46;98297.25;;;22.91;71.87
54876;BME280;40764;48.472;8.166;2022-10-16T13:41:02;98299.25;;;22.91;70.14
54876;BME280;40764;48.472;8.166;2022-10-16T13:47:02;98312.63;;;23.34;68.04
54876;BME280;40764;48.472;8.166;2022-10-16T13:53:09;98306.44;;;23.18;66.97
54876;BME280;40764;48.472;8.166;2022-10-16T13:59:24;98303.06;;;23.35;64.71
54876;BME280;40764;48.472;8.166;2022-10-16T14:05:25;98299.03;;;23.03;67.49
54876;BME280;40764;48.472;8.166;2022-10-16T14:11:26;98298.56;;;22.51;68.26
54876;BME280;40764;48.472;8.166;2022-10-16T14:17:29;98302.28;;;22.59;68.00
54876;BME280;40764;48.472;8.166;2022-10-16T14:23:36;98297.41;;;23.02;66.68
54876;BME280;40764;48.472;8.166;2022-10-16T14:29:38;98303.59;;;22.88;67.23
54876;BME280;40764;48.472;8.166;2022-10-16T14:35:39;98301.34;;;22.51;70.56
54876;BME280;40764;48.472;8.166;2022-10-16T14:41:48;98302.06;;;22.25;73.66
54876;BME280;40764;48.472;8.166;2022-10-16T14:48:00;98302.97;;;22.30;71.94
54876;BME280;40764;48.472;8.166;2022-10-16T14:54:02;98310.91;;;22.08;72.70
54876;BME280;40764;48.472;8.166;2022-10-16T15:00:13;98319.16;;;21.66;75.42
54876;BME280;40764;48.472;8.166;2022-10-16T15:06:15;98329.25;;;21.20;76.94
54876;BME280;40764;48.472;8.166;2022-10-16T15:12:16;98321.06;;;20.76;79.88
54876;BME280;40764;48.472;8.166;2022-10-16T15:18:21;98332.31;;;20.36;83.40
54876;BME280;40764;48.472;8.166;2022-10-16T15:24:22;98336.97;;;20.32;84.21
54876;BME280;40764;48.472;8.166;2022-10-16T15:30:22;98333.78;;;20.18;83.62
54876;BME280;40764;48.472;8.166;2022-10-16T15:36:27;98339.97;;;19.83;86.98
54876;BME280;40764;48.472;8.166;2022-10-16T15:42:28;98335.66;;;19.70;86.51
54876;BME280;40764;48.472;8.166;2022-10-16T15:48:30;98340.22;;;19.26;89.16
54876;BME280;40764;48.472;8.166;2022-10-16T15:54:30;98349.47;;;19.17;89.66
54876;BME280;40764;48.472;8.166;2022-10-16T16:00:31;98349.03;;;18.91;90.35
54876;BME280;40764;48.472;8.166;2022-10-16T16:06:31;98350.63;;;18.68;92.53
54876;BME280;40764;48.472;8.166;2022-10-16T16:12:32;98356.34;;;18.50;94.00
54876;BME280;40764;48.472;8.166;2022-10-16T16:18:47;98360.41;;;18.20;95.45
54876;BME280;40764;48.472;8.166;2022-10-16T16:24:49;98353.72;;;17.88;97.30
54876;BME280;40764;48.472;8.166;2022-10-16T16:30:51;98346.09;;;17.73;99.04
54876;BME280;40764;48.472;8.166;2022-10-16T16:36:51;98354.69;;;17.50;100.00
54876;BME280;40764;48.472;8.166;2022-10-16T16:42:51;98359.19;;;17.34;100.00
54876;BME280;40764;48.472;8.166;2022-10-16T16:48:52;98361.94;;;17.34;99.42
54876;BME280;40764;48.472;8.166;2022-10-16T16:54:58;98376.56;;;17.34;98.90
54876;BME280;40764;48.472;8.166;2022-10-16T17:00:59;98382.44;;;17.03;99.79
54876;BME280;40764;48.472;8.166;2022-10-16T17:07:03;98394.59;;;16.73;100.00
54876;BME280;40764;48.472;8.166;2022-10-16T17:13:03;98402.41;;;16.62;100.00
54876;BME280;40764;48.472;8.166;2022-10-16T17:19:09;98413.00;;;16.43;100.00
54876;BME280;40764;48.472;8.166;2022-10-16T17:25:12;98425.41;;;16.20;100.00
54876;BME280;40764;48.472;8.166;2022-10-16T17:31:14;98434.16;;;16.13;100.00
54876;BME280;40764;48.472;8.166;2022-10-16T17:37:15;98434.66;;;16.06;100.00
54876;BME280;40764;48.472;8.166;2022-10-16T17:43:16;98444.38;;;16.13;100.00
54876;BME280;40764;48.472;8.166;2022-10-16T17:49:19;98452.16;;;16.02;100.00
54876;BME280;40764;48.472;8.166;2022-10-16T17:55:19;98456.56;;;15.94;100.00
54876;BME280;40764;48.472;8.166;2022-10-16T18:01:23;98464.81;;;15.77;100.00
54876;BME280;40764;48.472;8.166;2022-10-16T18:07:23;98475.66;;;15.65;100.00
54876;BME280;40764;48.472;8.166;2022-10-16T18:13:23;98480.13;;;15.52;100.00
54876;BME280;40764;48.472;8.166;2022-10-16T18:19:25;98489.03;;;15.40;100.00
54876;BME280;40764;48.472;8.166;2022-10-16T18:25:25;98492.69;;;15.27;100.00
54876;BME280;40764;48.472;8.166;2022-10-16T18:31:26;98493.66;;;15.23;100.00
54876;BME280;40764;48.472;8.166;2022-10-16T18:37:26;98494.41;;;15.06;100.00
54876;BME280;40764;48.472;8.166;2022-10-16T18:43:27;98497.66;;;15.08;100.00
54876;BME280;40764;48.472;8.166;2022-10-16T18:49:31;98510.56;;;14.99;100.00
54876;BME280;40764;48.472;8.166;2022-10-16T18:55:31;98507.94;;;14.94;100.00
54876;BME280;40764;48.472;8.166;2022-10-16T19:01:34;98520.03;;;14.84;100.00
54876;BME280;40764;48.472;8.166;2022-10-16T19:07:35;98520.19;;;14.79;100.00
54876;BME280;40764;48.472;8.166;2022-10-16T19:13:36;98526.09;;;14.72;100.00
54876;BME280;40764;48.472;8.166;2022-10-16T19:19:37;98527.38;;;14.66;100.00
54876;BME280;40764;48.472;8.166;2022-10-16T19:25:38;98534.81;;;14.66;100.00
54876;BME280;40764;48.472;8.166;2022-10-16T19:31:39;98542.75;;;14.67;100.00
54876;BME280;40764;48.472;8.166;2022-10-16T19:37:40;98546.06;;;14.55;100.00
54876;BME280;40764;48.472;8.166;2022-10-16T19:43:41;98551.91;;;14.54;100.00
54876;BME280;40764;48.472;8.166;2022-10-16T19:49:41;98562.41;;;14.52;100.00
54876;BME280;40764;48.472;8.166;2022-10-16T19:55:42;98562.91;;;14.40;100.00
54876;BME280;40764;48.472;8.166;2022-10-16T20:01:42;98582.06;;;14.45;100.00
54876;BME280;40764;48.472;8.166;2022-10-16T20:07:42;98590.09;;;14.42;100.00
54876;BME280;40764;48.472;8.166;2022-10-16T20:13:43;98595.03;;;14.31;100.00
54876;BME280;40764;48.472;8.166;2022-10-16T20:19:44;98603.53;;;14.21;100.00
54876;BME280;40764;48.472;8.166;2022-10-16T20:25:44;98612.47;;;14.13;100.00
54876;BME280;40764;48.472;8.166;2022-10-16T20:31:45;98610.22;;;14.15;100.00
54876;BME280;40764;48.472;8.166;2022-10-16T20:37:45;98616.97;;;14.09;100.00
54876;BME280;40764;48.472;8.166;2022-10-16T20:43:49;98623.69;;;14.03;100.00
54876;BME280;40764;48.472;8.166;2022-10-16T20:49:51;98632.78;;;13.89;100.00
54876;BME280;40764;48.472;8.166;2022-10-16T20:55:51;98629.72;;;13.91;100.00
54876;BME280;40764;48.472;8.166;2022-10-16T21:01:52;98639.47;;;13.83;100.00
54876;BME280;40764;48.472;8.166;2022-10-16T21:07:52;98631.34;;;13.78;100.00
54876;BME280;40764;48.472;8.166;2022-10-16T21:13:54;98638.06;;;13.72;100.00
54876;BME280;40764;48.472;8.166;2022-10-16T21:19:55;98639.91;;;13.63;100.00
54876;BME280;40764;48.472;8.166;2022-10-16T21:25:55;98642.66;;;13.63;100.00
54876;BME280;40764;48.472;8.166;2022-10-16T21:31:59;98639.09;;;13.62;100.00
54876;BME280;40764;48.472;8.166;2022-10-16T21:38:00;98644.25;;;13.50;100.00
54876;BME280;40764;48.472;8.166;2022-10-16T21:44:04;98643.84;;;13.43;100.00
54876;BME280;40764;48.472;8.166;2022-10-16T21:50:05;98647.91;;;13.46;100.00
54876;BME280;40764;48.472;8.166;2022-10-16T21:56:20;98651.69;;;13.50;100.00
54876;BME280;40764;48.472;8.166;2022-10-16T22:02:20;98644.66;;;13.44;100.00
54876;BME280;40764;48.472;8.166;2022-10-16T22:08:21;98648.69;;;13.19;100.00
54876;BME280;40764;48.472;8.166;2022-10-16T22:14:21;98649.84;;;13.13;100.00
54876;BME280;40764;48.472;8.166;2022-10-16T22:20:22;98659.22;;;13.12;100.00
54876;BME280;40764;48.472;8.166;2022-10-16T22:26:22;98660.31;;;13.11;100.00
54876;BME280;40764;48.472;8.166;2022-10-16T22:32:22;98665.28;;;13.09;100.00
54876;BME280;40764;48.472;8.166;2022-10-16T22:38:23;98668.03;;;13.09;100.00
54876;BME280;40764;48.472;8.166;2022-10-16T22:44:24;98671.91;;;13.08;100.00
54876;BME280;40764;48.472;8.166;2022-10-16T22:50:27;98673.16;;;12.96;100.00
54876;BME280;40764;48.472;8.166;2022-10-16T22:56:28;98664.00;;;12.87;100.00
54876;BME280;40764;48.472;8.166;2022-10-16T23:02:28;98676.91;;;12.87;100.00
54876;BME280;40764;48.472;8.166;2022-10-16T23:08:29;98683.59;;;12.81;100.00
54876;BME280;40764;48.472;8.166;2022-10-16T23:14:29;98694.03;;;12.79;100.00
54876;BME280;40764;48.472;8.166;2022-10-16T23:20:29;98700.66;;;12.78;100.00
54876;BME280;40764;48.472;8.166;2022-10-16T23:26:30;98698.94;;;12.63;100.00
54876;BME280;40764;48.472;8.166;2022-10-16T23:32:33;98692.34;;;12.64;100.00
54876;BME280;40764;48.472;8.166;2022-10-16T23:38:33;98695.69;;;12.80;100.00
54876;BME280;40764;48.472;8.166;2022-10-16T23:45:05;98701.59;;;12.68;100.00
54876;BME280;40764;48.472;8.166;2022-10-16T23:51:06;98707.44;;;12.61;100.00
54876;BME280;40764;48.472;8.166;2022-10-16T23:57:13;98701.66;;;12.63;100.00
